Wetterdaten: Dienstag, 31.01.2017
Datum Zeit Temp. A. Temp. A. min Temp. A. max Feuchte A. Bod.Feucht 4 Luftdruck Regen Wind Richtung Richtung Sonnenschein ET Solar Taupunkt Windchill Windben Empfang
31.01.2017 00:00 4,9 C 4,9 C 4,9 C 98 % 0 cb 1014,7 hPa 0,0 l/m 1,6 km/h (1 Bft) SW 225 0 min 0,000 mm 0 W/m 4,6 C 4,9 C 4,8 km/h (1 Bft) 100,00 %
31.01.2017 00:10 5,0 C 4,9 C 5,0 C 98 % 0 cb 1014,7 hPa 0,2 l/m 1,6 km/h (1 Bft) W-SW 247 0 min 0,000 mm 0 W/m 4,7 C 5,0 C 3,2 km/h (1 Bft) 100,00 %
31.01.2017 00:20 5,1 C 5,0 C 5,1 C 98 % 0 cb 1014,6 hPa 0,0 l/m 1,6 km/h (1 Bft) W-SW 247 0 min 0,000 mm 0 W/m 4,8 C 5,1 C 4,8 km/h (1 Bft) 100,00 %
31.01.2017 00:30 5,1 C 5,1 C 5,1 C 98 % 0 cb 1014,6 hPa 0,2 l/m 0,0 km/h (0 Bft) W-SW 247 0 min 0,000 mm 0 W/m 4,8 C 5,1 C 4,8 km/h (1 Bft) 100,00 %
31.01.2017 00:40 5,2 C 5,1 C 5,2 C 98 % 0 cb 1014,5 hPa 0,0 l/m 1,6 km/h (1 Bft) W-SW 247 0 min 0,000 mm 0 W/m 4,9 C 5,2 C 6,4 km/h (2 Bft) 100,00 %
31.01.2017 00:50 5,2 C 5,1 C 5,2 C 98 % 0 cb 1014,6 hPa 0,0 l/m 1,6 km/h (1 Bft) W-SW 247 0 min 0,000 mm 0 W/m 4,9 C 5,2 C 4,8 km/h (1 Bft) 100,00 %
31.01.2017 01:00 5,2 C 5,2 C 5,2 C 98 % 0 cb 1014,6 hPa 0,0 l/m 0,0 km/h (0 Bft) W-SW 247 0 min 0,000 mm 0 W/m 4,9 C 5,2 C 4,8 km/h (1 Bft) 100,00 %
31.01.2017 01:10 5,2 C 5,2 C 5,2 C 98 % 0 cb 1014,6 hPa 0,0 l/m 1,6 km/h (1 Bft) W-SW 247 0 min 0,000 mm 0 W/m 4,9 C 5,2 C 4,8 km/h (1 Bft) 100,00 %
31.01.2017 01:20 5,2 C 5,2 C 5,2 C 98 % 0 cb 1014,6 hPa 0,0 l/m 0,0 km/h (0 Bft) W-SW 247 0 min 0,000 mm 0 W/m 4,9 C 5,2 C 3,2 km/h (1 Bft) 100,00 %
31.01.2017 01:30 5,1 C 5,1 C 5,2 C 98 % 0 cb 1014,7 hPa 0,0 l/m 0,0 km/h (0 Bft) W-SW 247 0 min 0,000 mm 0 W/m 4,8 C 5,1 C 6,4 km/h (2 Bft) 100,00 %
31.01.2017 01:40 5,2 C 5,1 C 5,2 C 98 % 0 cb 1014,7 hPa 0,0 l/m 1,6 km/h (1 Bft) W-SW 247 0 min 0,000 mm 0 W/m 4,9 C 5,2 C 6,4 km/h (2 Bft) 99,56 %
31.01.2017 01:50 5,2 C 5,2 C 5,3 C 98 % 0 cb 1014,7 hPa 0,0 l/m 1,6 km/h (1 Bft) W-SW 247 0 min 0,000 mm 0 W/m 4,9 C 5,2 C 6,4 km/h (2 Bft) 100,00 %
31.01.2017 02:00 5,3 C 5,2 C 5,3 C 98 % 0 cb 1014,6 hPa 0,0 l/m 3,2 km/h (1 Bft) W 270 0 min 0,000 mm 0 W/m 5,0 C 5,3 C 6,4 km/h (2 Bft) 100,00 %
31.01.2017 02:10 5,4 C 5,3 C 5,4 C 98 % 0 cb 1014,6 hPa 0,0 l/m 3,2 km/h (1 Bft) W 270 0 min 0,000 mm 0 W/m 5,1 C 5,4 C 11,3 km/h (2 Bft) 100,00 %
31.01.2017 02:20 5,5 C 5,4 C 5,5 C 98 % 0 cb 1014,7 hPa 0,0 l/m 1,6 km/h (1 Bft) W 270 0 min 0,000 mm 0 W/m 5,2 C 5,5 C 6,4 km/h (2 Bft) 100,00 %
31.01.2017 02:30 5,4 C 5,4 C 5,5 C 98 % 0 cb 1014,8 hPa 0,0 l/m 1,6 km/h (1 Bft) W 270 0 min 0,000 mm 0 W/m 5,1 C 5,4 C 4,8 km/h (1 Bft) 100,00 %
31.01.2017 02:40 5,4 C 5,4 C 5,5 C 98 % 0 cb 1014,8 hPa 0,0 l/m 1,6 km/h (1 Bft) W 270 0 min 0,000 mm 0 W/m 5,1 C 5,4 C 4,8 km/h (1 Bft) 100,00 %
31.01.2017 02:50 5,4 C 5,4 C 5,4 C 98 % 0 cb 1014,8 hPa 0,0 l/m 0,0 km/h (0 Bft) W 270 0 min 0,000 mm 0 W/m 5,1 C 5,4 C 4,8 km/h (1 Bft) 100,00 %
31.01.2017 03:00 5,4 C 5,4 C 5,4 C 98 % 0 cb 1014,8 hPa 0,0 l/m 1,6 km/h (1 Bft) W 270 0 min 0,000 mm 0 W/m 5,1 C 5,4 C 6,4 km/h (2 Bft) 100,00 %
31.01.2017 03:10 5,5 C 5,4 C 5,6 C 98 % 0 cb 1014,8 hPa 0,0 l/m 1,6 km/h (1 Bft) W-NW 292 0 min 0,000 mm 0 W/m 5,2 C 5,5 C 6,4 km/h (2 Bft) 100,00 %
31.01.2017 03:20 5,5 C 5,5 C 5,6 C 98 % 0 cb 1014,8 hPa 0,0 l/m 1,6 km/h (1 Bft) NW 315 0 min 0,000 mm 0 W/m 5,2 C 5,5 C 8,0 km/h (2 Bft) 100,00 %
31.01.2017 03:30 5,3 C 5,3 C 5,5 C 98 % 0 cb 1014,8 hPa 0,0 l/m 1,6 km/h (1 Bft) N-NW 337 0 min 0,000 mm 0 W/m 5,0 C 5,3 C 6,4 km/h (2 Bft) 100,00 %
31.01.2017 03:40 5,1 C 5,1 C 5,3 C 98 % 0 cb 1014,9 hPa 0,0 l/m 1,6 km/h (1 Bft) N-NW 337 0 min 0,000 mm 0 W/m 4,8 C 5,1 C 6,4 km/h (2 Bft) 99,56 %
31.01.2017 03:50 5,0 C 5,0 C 5,1 C 98 % 0 cb 1014,8 hPa 0,0 l/m 0,0 km/h (0 Bft) N-NW 337 0 min 0,000 mm 0 W/m 4,7 C 5,0 C 6,4 km/h (2 Bft) 100,00 %
31.01.2017 04:00 4,9 C 4,9 C 5,1 C 98 % 0 cb 1014,7 hPa 0,0 l/m 1,6 km/h (1 Bft) N-NW 337 0 min 0,000 mm 0 W/m 4,6 C 4,9 C 6,4 km/h (2 Bft) 100,00 %
31.01.2017 04:10 4,9 C 4,9 C 4,9 C 98 % 0 cb 1014,7 hPa 0,0 l/m 0,0 km/h (0 Bft) N-NW 337 0 min 0,000 mm 0 W/m 4,6 C 4,9 C 3,2 km/h (1 Bft) 100,00 %
31.01.2017 04:20 4,8 C 4,8 C 4,9 C 98 % 0 cb 1014,7 hPa 0,0 l/m 0,0 km/h (0 Bft) N-NW 337 0 min 0,000 mm 0 W/m 4,5 C 4,8 C 1,6 km/h (1 Bft) 100,00 %
31.01.2017 04:30 4,7 C 4,7 C 4,8 C 98 % 0 cb 1014,7 hPa 0,0 l/m 0,0 km/h (0 Bft) N-NW 337 0 min 0,000 mm 0 W/m 4,4 C 4,7 C 3,2 km/h (1 Bft) 100,00 %
31.01.2017 04:40 4,7 C 4,6 C 4,7 C 98 % 0 cb 1014,7 hPa 0,0 l/m 0,0 km/h (0 Bft) N 0 0 min 0,000 mm 0 W/m 4,4 C 4,7 C 0,0 km/h (0 Bft) 100,00 %
31.01.2017 04:50 4,6 C 4,6 C 4,7 C 98 % 0 cb 1014,6 hPa 0,0 l/m 0,0 km/h (0 Bft) N-NW 337 0 min 0,000 mm 0 W/m 4,3 C 4,6 C 1,6 km/h (1 Bft) 100,00 %
31.01.2017 05:00 4,6 C 4,6 C 4,6 C 98 % 0 cb 1014,7 hPa 0,0 l/m 1,6 km/h (1 Bft) N-NW 337 0 min 0,000 mm 0 W/m 4,3 C 4,6 C 6,4 km/h (2 Bft) 100,00 %
31.01.2017 05:10 4,5 C 4,5 C 4,6 C 98 % 0 cb 1014,8 hPa 0,0 l/m 1,6 km/h (1 Bft) N-NW 337 0 min 0,000 mm 0 W/m 4,2 C 4,5 C 8,0 km/h (2 Bft) 100,00 %
31.01.2017 05:20 4,4 C 4,4 C 4,5 C 98 % 0 cb 1014,8 hPa 0,0 l/m 1,6 km/h (1 Bft) N-NW 337 0 min 0,000 mm 0 W/m 4,1 C 4,4 C 8,0 km/h (2 Bft) 100,00 %
31.01.2017 05:30 4,2 C 4,2 C 4,4 C 98 % 0 cb 1014,8 hPa 0,0 l/m 3,2 km/h (1 Bft) N-NW 337 0 min 0,000 mm 0 W/m 3,9 C 4,2 C 8,0 km/h (2 Bft) 100,00 %
31.01.2017 05:40 4,0 C 4,0 C 4,2 C 98 % 0 cb 1014,9 hPa 0,0 l/m 3,2 km/h (1 Bft) N-NW 337 0 min 0,000 mm 0 W/m 3,7 C 4,0 C 9,7 km/h (2 Bft) 100,00 %
31.01.2017 05:50 3,8 C 3,8 C 4,0 C 98 % 0 cb 1015,0 hPa 0,0 l/m 4,8 km/h (1 Bft) N-NW 337 0 min 0,000 mm 0 W/m 3,5 C 2,8 C 9,7 km/h (2 Bft) 100,00 %
31.01.2017 06:00 3,7 C 3,7 C 3,8 C 98 % 0 cb 1015,0 hPa 0,0 l/m 6,4 km/h (2 Bft) N-NW 337 0 min 0,000 mm 0 W/m 3,4 C 2,1 C 12,9 km/h (3 Bft) 100,00 %
31.01.2017 06:10 3,6 C 3,6 C 3,7 C 97 % 0 cb 1015,0 hPa 0,0 l/m 3,2 km/h (1 Bft) N-NW 337 0 min 0,000 mm 0 W/m 3,2 C 3,6 C 8,0 km/h (2 Bft) 100,00 %
31.01.2017 06:20 3,5 C 3,5 C 3,6 C 97 % 0 cb 1015,0 hPa 0,0 l/m 3,2 km/h (1 Bft) NW 315 0 min 0,000 mm 0 W/m 3,1 C 3,5 C 9,7 km/h (2 Bft) 100,00 %
31.01.2017 06:30 3,3 C 3,3 C 3,5 C 97 % 0 cb 1015,1 hPa 0,0 l/m 4,8 km/h (1 Bft) NW 315 0 min 0,000 mm 0 W/m 2,9 C 2,2 C 8,0 km/h (2 Bft) 100,00 %
31.01.2017 06:40 3,2 C 3,2 C 3,3 C 97 % 0 cb 1015,1 hPa 0,0 l/m 3,2 km/h (1 Bft) NW 315 0 min 0,000 mm 0 W/m 2,8 C 3,2 C 8,0 km/h (2 Bft) 100,00 %
31.01.2017 06:50 3,1 C 3,1 C 3,2 C 97 % 0 cb 1015,1 hPa 0,2 l/m 4,8 km/h (1 Bft) N-NW 337 0 min 0,000 mm 0 W/m 2,7 C 2,0 C 12,9 km/h (3 Bft) 100,00 %
31.01.2017 07:00 3,1 C 3,1 C 3,1 C 97 % 0 cb 1015,1 hPa 0,0 l/m 6,4 km/h (2 Bft) NW 315 0 min 0,000 mm 0 W/m 2,7 C 1,4 C 12,9 km/h (3 Bft) 100,00 %
31.01.2017 07:10 3,0 C 3,0 C 3,1 C 97 % 0 cb 1015,2 hPa 0,0 l/m 4,8 km/h (1 Bft) N-NW 337 0 min 0,000 mm 0 W/m 2,6 C 1,9 C 12,9 km/h (3 Bft) 93,86 %
31.01.2017 07:20 2,8 C 2,8 C 3,0 C 97 % 0 cb 1015,3 hPa 0,0 l/m 4,8 km/h (1 Bft) N-NW 337 0 min 0,000 mm 0 W/m 2,4 C 1,7 C 11,3 km/h (2 Bft) 100,00 %
31.01.2017 07:30 2,7 C 2,7 C 2,8 C 97 % 0 cb 1015,5 hPa 0,0 l/m 3,2 km/h (1 Bft) N-NW 337 0 min 0,000 mm 0 W/m 2,3 C 2,7 C 8,0 km/h (2 Bft) 100,00 %
31.01.2017 07:40 2,7 C 2,7 C 2,7 C 96 % 0 cb 1015,6 hPa 0,0 l/m 3,2 km/h (1 Bft) N-NW 337 0 min 0,000 mm 0 W/m 2,1 C 2,7 C 6,4 km/h (2 Bft) 100,00 %
31.01.2017 07:50 2,6 C 2,6 C 2,7 C 96 % 0 cb 1015,6 hPa 0,0 l/m 1,6 km/h (1 Bft) NO 45 0 min 0,000 mm 0 W/m 2,0 C 2,6 C 4,8 km/h (1 Bft) 100,00 %
31.01.2017 08:00 2,6 C 2,6 C 2,7 C 96 % 0 cb 1015,6 hPa 0,0 l/m 3,2 km/h (1 Bft) N 360 0 min 0,000 mm 0 W/m 2,0 C 2,6 C 8,0 km/h (2 Bft) 100,00 %
31.01.2017 08:10 2,4 C 2,4 C 2,6 C 96 % 0 cb 1015,8 hPa 0,0 l/m 4,8 km/h (1 Bft) N 360 0 min 0,000 mm 0 W/m 1,8 C 1,2 C 11,3 km/h (2 Bft) 99,56 %
31.01.2017 08:20 2,3 C 2,3 C 2,4 C 96 % 0 cb 1015,9 hPa 0,0 l/m 3,2 km/h (1 Bft) N 360 0 min 0,000 mm 7 W/m 1,7 C 2,3 C 9,7 km/h (2 Bft) 100,00 %
31.01.2017 08:30 2,1 C 2,1 C 2,3 C 95 % 0 cb 1015,8 hPa 0,0 l/m 1,6 km/h (1 Bft) N 360 0 min 0,000 mm 19 W/m 1,4 C 2,1 C 4,8 km/h (1 Bft) 100,00 %
31.01.2017 08:40 1,9 C 1,8 C 2,1 C 95 % 0 cb 1016,0 hPa 0,0 l/m 1,6 km/h (1 Bft) N 360 0 min 0,000 mm 23 W/m 1,2 C 1,9 C 3,2 km/h (1 Bft) 100,00 %
31.01.2017 08:50 1,7 C 1,7 C 1,8 C 95 % 0 cb 1016,1 hPa 0,0 l/m 1,6 km/h (1 Bft) N 360 0 min 0,000 mm 21 W/m 1,0 C 1,7 C 3,2 km/h (1 Bft) 100,00 %
31.01.2017 09:00 1,6 C 1,6 C 1,7 C 95 % 0 cb 1016,1 hPa 0,0 l/m 0,0 km/h (0 Bft) N 360 0 min 0,000 mm 39 W/m 0,9 C 1,6 C 3,2 km/h (1 Bft) 100,00 %
31.01.2017 09:10 1,4 C 1,4 C 1,6 C 95 % 0 cb 1016,3 hPa 0,0 l/m 0,0 km/h (0 Bft) N 360 0 min 0,000 mm 37 W/m 0,7 C 1,4 C 1,6 km/h (1 Bft) 100,00 %
31.01.2017 09:20 1,4 C 1,3 C 1,4 C 96 % 0 cb 1016,3 hPa 0,0 l/m 0,0 km/h (0 Bft) N 0 0 min 0,000 mm 70 W/m 0,8 C 1,4 C 0,0 km/h (0 Bft) 100,00 %
31.01.2017 09:30 1,5 C 1,4 C 1,5 C 96 % 0 cb 1016,3 hPa 0,0 l/m 0,0 km/h (0 Bft) N 0 0 min 0,000 mm 72 W/m 0,9 C 1,5 C 0,0 km/h (0 Bft) 100,00 %
31.01.2017 09:40 1,7 C 1,5 C 1,7 C 97 % 0 cb 1016,2 hPa 0,0 l/m 0,0 km/h (0 Bft) N 360 0 min 0,000 mm 102 W/m 1,3 C 1,7 C 6,4 km/h (2 Bft) 97,81 %
31.01.2017 09:50 1,9 C 1,7 C 1,9 C 96 % 0 cb 1016,1 hPa 0,0 l/m 0,0 km/h (0 Bft) N 360 10 min 0,000 mm 185 W/m 1,3 C 1,9 C 4,8 km/h (1 Bft) 100,00 %
31.01.2017 10:00 2,1 C 1,9 C 2,1 C 95 % 0 cb 1016,2 hPa 0,0 l/m 3,2 km/h (1 Bft) N 360 10 min 0,025 mm 206 W/m 1,4 C 2,1 C 4,8 km/h (1 Bft) 100,00 %
31.01.2017 10:10 2,3 C 2,1 C 2,3 C 95 % 0 cb 1016,3 hPa 0,0 l/m 1,6 km/h (1 Bft) N 360 10 min 0,000 mm 232 W/m 1,6 C 2,3 C 4,8 km/h (1 Bft) 100,00 %
31.01.2017 10:20 2,6 C 2,3 C 2,6 C 94 % 0 cb 1016,4 hPa 0,0 l/m 1,6 km/h (1 Bft) N 360 10 min 0,000 mm 246 W/m 1,7 C 2,6 C 4,8 km/h (1 Bft) 100,00 %
31.01.2017 10:30 2,7 C 2,6 C 2,8 C 93 % 0 cb 1016,4 hPa 0,0 l/m 3,2 km/h (1 Bft) N 360 10 min 0,000 mm 213 W/m 1,7 C 2,7 C 6,4 km/h (2 Bft) 100,00 %
31.01.2017 10:40 2,8 C 2,7 C 2,8 C 93 % 0 cb 1016,6 hPa 0,0 l/m 1,6 km/h (1 Bft) N 360 10 min 0,000 mm 343 W/m 1,8 C 2,8 C 4,8 km/h (1 Bft) 100,00 %
31.01.2017 10:50 2,9 C 2,8 C 2,9 C 92 % 0 cb 1016,8 hPa 0,0 l/m 4,8 km/h (1 Bft) N 360 10 min 0,000 mm 360 W/m 1,7 C 1,8 C 9,7 km/h (2 Bft) 100,00 %
31.01.2017 11:00 2,7 C 2,7 C 2,9 C 92 % 0 cb 1016,9 hPa 0,0 l/m 4,8 km/h (1 Bft) N 360 0 min 0,076 mm 142 W/m 1,5 C 1,6 C 11,3 km/h (2 Bft) 100,00 %
31.01.2017 11:10 3,2 C 2,7 C 3,2 C 92 % 0 cb 1017,0 hPa 0,0 l/m 3,2 km/h (1 Bft) O-NO 67 10 min 0,000 mm 434 W/m 2,0 C 3,2 C 11,3 km/h (2 Bft) 100,00 %
31.01.2017 11:20 3,6 C 3,2 C 3,6 C 91 % 0 cb 1017,1 hPa 0,0 l/m 3,2 km/h (1 Bft) O-NO 67 10 min 0,000 mm 501 W/m 2,3 C 3,6 C 6,4 km/h (2 Bft) 100,00 %
31.01.2017 11:30 3,7 C 3,6 C 3,8 C 89 % 0 cb 1017,2 hPa 0,0 l/m 3,2 km/h (1 Bft) NO 45 10 min 0,000 mm 420 W/m 2,1 C 3,7 C 12,9 km/h (3 Bft) 100,00 %
31.01.2017 11:40 3,3 C 3,3 C 3,7 C 88 % 0 cb 1017,2 hPa 0,0 l/m 3,2 km/h (1 Bft) N-NO 22 10 min 0,000 mm 160 W/m 1,5 C 3,3 C 11,3 km/h (2 Bft) 99,56 %
31.01.2017 11:50 3,2 C 3,2 C 3,3 C 89 % 0 cb 1017,2 hPa 0,0 l/m 3,2 km/h (1 Bft) NO 45 10 min 0,000 mm 190 W/m 1,6 C 3,2 C 9,7 km/h (2 Bft) 100,00 %
31.01.2017 12:00 3,1 C 3,1 C 3,2 C 89 % 0 cb 1017,3 hPa 0,0 l/m 3,2 km/h (1 Bft) O-NO 67 10 min 0,076 mm 183 W/m 1,5 C 3,1 C 6,4 km/h (2 Bft) 100,00 %
31.01.2017 12:10 3,1 C 3,1 C 3,1 C 88 % 0 cb 1017,3 hPa 0,0 l/m 1,6 km/h (1 Bft) O-NO 67 10 min 0,000 mm 156 W/m 1,3 C 3,1 C 4,8 km/h (1 Bft) 100,00 %
31.01.2017 12:20 3,3 C 3,1 C 3,3 C 89 % 0 cb 1017,2 hPa 0,0 l/m 1,6 km/h (1 Bft) O-NO 67 10 min 0,000 mm 543 W/m 1,7 C 3,3 C 6,4 km/h (2 Bft) 100,00 %
31.01.2017 12:30 3,9 C 3,3 C 3,9 C 87 % 0 cb 1017,1 hPa 0,0 l/m 3,2 km/h (1 Bft) O-NO 67 10 min 0,000 mm 524 W/m 1,9 C 3,9 C 8,0 km/h (2 Bft) 100,00 %
31.01.2017 12:40 3,6 C 3,6 C 3,9 C 86 % 0 cb 1017,2 hPa 0,0 l/m 4,8 km/h (1 Bft) N 360 10 min 0,000 mm 485 W/m 1,5 C 2,6 C 9,7 km/h (2 Bft) 99,12 %
31.01.2017 12:50 3,5 C 3,4 C 3,6 C 87 % 0 cb 1017,3 hPa 0,0 l/m 1,6 km/h (1 Bft) N 360 10 min 0,000 mm 541 W/m 1,5 C 3,5 C 6,4 km/h (2 Bft) 100,00 %
31.01.2017 13:00 3,9 C 3,5 C 3,9 C 86 % 0 cb 1017,3 hPa 0,0 l/m 3,2 km/h (1 Bft) O-NO 67 10 min 0,102 mm 596 W/m 1,8 C 3,9 C 11,3 km/h (2 Bft) 100,00 %
31.01.2017 13:10 3,9 C 3,8 C 3,9 C 86 % 0 cb 1017,3 hPa 0,0 l/m 1,6 km/h (1 Bft) N-NO 22 10 min 0,000 mm 339 W/m 1,8 C 3,9 C 6,4 km/h (2 Bft) 100,00 %
31.01.2017 13:20 4,4 C 3,9 C 4,4 C 84 % 0 cb 1017,1 hPa 0,0 l/m 3,2 km/h (1 Bft) O 90 10 min 0,000 mm 506 W/m 1,9 C 4,4 C 8,0 km/h (2 Bft) 100,00 %
31.01.2017 13:30 4,8 C 4,4 C 4,8 C 84 % 0 cb 1017,1 hPa 0,0 l/m 3,2 km/h (1 Bft) O 90 10 min 0,000 mm 543 W/m 2,3 C 4,8 C 11,3 km/h (2 Bft) 100,00 %
31.01.2017 13:40 4,5 C 4,5 C 4,8 C 83 % 0 cb 1017,1 hPa 0,0 l/m 4,8 km/h (1 Bft) O-NO 67 10 min 0,000 mm 316 W/m 1,9 C 3,6 C 11,3 km/h (2 Bft) 100,00 %
31.01.2017 13:50 4,0 C 4,0 C 4,4 C 84 % 0 cb 1017,2 hPa 0,0 l/m 3,2 km/h (1 Bft) O-NO 67 10 min 0,000 mm 345 W/m 1,5 C 4,0 C 8,0 km/h (2 Bft) 100,00 %
31.01.2017 14:00 4,2 C 3,9 C 4,2 C 85 % 0 cb 1017,0 hPa 0,0 l/m 1,6 km/h (1 Bft) O-NO 67 10 min 0,127 mm 429 W/m 1,9 C 4,2 C 4,8 km/h (1 Bft) 100,00 %
31.01.2017 14:10 4,6 C 4,2 C 4,6 C 83 % 0 cb 1017,1 hPa 0,0 l/m 3,2 km/h (1 Bft) O-NO 67 10 min 0,000 mm 464 W/m 2,0 C 4,6 C 12,9 km/h (3 Bft) 100,00 %
31.01.2017 14:20 4,4 C 4,4 C 4,6 C 84 % 0 cb 1017,0 hPa 0,0 l/m 3,2 km/h (1 Bft) O-NO 67 10 min 0,000 mm 264 W/m 1,9 C 4,4 C 9,7 km/h (2 Bft) 100,00 %
31.01.2017 14:30 4,1 C 4,1 C 4,4 C 84 % 0 cb 1017,1 hPa 0,0 l/m 3,2 km/h (1 Bft) N-NO 22 10 min 0,000 mm 171 W/m 1,6 C 4,1 C 8,0 km/h (2 Bft) 100,00 %
31.01.2017 14:40 4,2 C 4,0 C 4,2 C 84 % 0 cb 1016,9 hPa 0,0 l/m 1,6 km/h (1 Bft) N-NO 22 10 min 0,000 mm 329 W/m 1,7 C 4,2 C 8,0 km/h (2 Bft) 100,00 %
31.01.2017 14:50 4,5 C 4,2 C 4,5 C 83 % 0 cb 1016,9 hPa 0,0 l/m 3,2 km/h (1 Bft) O-NO 67 10 min 0,000 mm 315 W/m 1,9 C 4,5 C 6,4 km/h (2 Bft) 100,00 %
31.01.2017 15:00 4,7 C 4,5 C 4,7 C 82 % 0 cb 1016,9 hPa 0,0 l/m 3,2 km/h (1 Bft) O-NO 67 10 min 0,102 mm 299 W/m 1,9 C 4,7 C 9,7 km/h (2 Bft) 100,00 %
31.01.2017 15:10 4,6 C 4,6 C 4,7 C 81 % 0 cb 1016,8 hPa 0,0 l/m 3,2 km/h (1 Bft) O 90 10 min 0,000 mm 271 W/m 1,6 C 4,6 C 4,8 km/h (1 Bft) 100,00 %
31.01.2017 15:20 4,7 C 4,6 C 4,7 C 81 % 0 cb 1017,0 hPa 0,0 l/m 3,2 km/h (1 Bft) N-NW 337 10 min 0,000 mm 244 W/m 1,7 C 4,7 C 8,0 km/h (2 Bft) 99,56 %
31.01.2017 15:30 4,6 C 4,6 C 4,7 C 81 % 0 cb 1016,9 hPa 0,0 l/m 1,6 km/h (1 Bft) N 360 10 min 0,000 mm 218 W/m 1,6 C 4,6 C 6,4 km/h (2 Bft) 100,00 %
31.01.2017 15:40 4,6 C 4,5 C 4,6 C 81 % 0 cb 1017,1 hPa 0,0 l/m 3,2 km/h (1 Bft) N 360 10 min 0,000 mm 193 W/m 1,6 C 4,6 C 8,0 km/h (2 Bft) 100,00 %
31.01.2017 15:50 4,6 C 4,5 C 4,6 C 82 % 0 cb 1017,2 hPa 0,0 l/m 1,6 km/h (1 Bft) N 360 10 min 0,000 mm 156 W/m 1,8 C 4,6 C 6,4 km/h (2 Bft) 100,00 %
31.01.2017 16:00 4,7 C 4,6 C 4,7 C 81 % 0 cb 1017,2 hPa 0,0 l/m 1,6 km/h (1 Bft) NO 45 10 min 0,076 mm 165 W/m 1,7 C 4,7 C 6,4 km/h (2 Bft) 100,00 %
31.01.2017 16:10 4,4 C 4,4 C 4,7 C 81 % 0 cb 1017,4 hPa 0,0 l/m 3,2 km/h (1 Bft) O 90 0 min 0,000 mm 79 W/m 1,4 C 4,4 C 6,4 km/h (2 Bft) 100,00 %
31.01.2017 16:20 4,1 C 4,1 C 4,4 C 83 % 0 cb 1017,5 hPa 0,0 l/m 1,6 km/h (1 Bft) O 90 0 min 0,000 mm 63 W/m 1,5 C 4,1 C 4,8 km/h (1 Bft) 100,00 %
31.01.2017 16:30 3,7 C 3,7 C 4,1 C 84 % 0 cb 1017,6 hPa 0,0 l/m 1,6 km/h (1 Bft) O 90 0 min 0,000 mm 63 W/m 1,3 C 3,7 C 3,2 km/h (1 Bft) 100,00 %
31.01.2017 16:40 3,4 C 3,4 C 3,7 C 86 % 0 cb 1017,6 hPa 0,0 l/m 1,6 km/h (1 Bft) O 90 0 min 0,000 mm 54 W/m 1,3 C 3,4 C 4,8 km/h (1 Bft) 100,00 %
31.01.2017 16:50 3,3 C 3,3 C 3,4 C 86 % 0 cb 1017,6 hPa 0,0 l/m 1,6 km/h (1 Bft) O 90 0 min 0,000 mm 47 W/m 1,2 C 3,3 C 4,8 km/h (1 Bft) 100,00 %
31.01.2017 17:00 3,1 C 3,1 C 3,3 C 87 % 0 cb 1017,7 hPa 0,0 l/m 1,6 km/h (1 Bft) O 90 0 min 0,025 mm 39 W/m 1,2 C 3,1 C 4,8 km/h (1 Bft) 100,00 %
31.01.2017 17:10 3,1 C 3,1 C 3,2 C 87 % 0 cb 1017,8 hPa 0,0 l/m 1,6 km/h (1 Bft) O 90 0 min 0,000 mm 16 W/m 1,2 C 3,1 C 4,8 km/h (1 Bft) 100,00 %
31.01.2017 17:20 3,0 C 3,0 C 3,1 C 87 % 0 cb 1017,9 hPa 0,0 l/m 1,6 km/h (1 Bft) O-NO 67 0 min 0,000 mm 0 W/m 1,1 C 3,0 C 6,4 km/h (2 Bft) 100,00 %
31.01.2017 17:30 2,9 C 2,9 C 3,0 C 87 % 0 cb 1018,0 hPa 0,0 l/m 1,6 km/h (1 Bft) O-NO 67 0 min 0,000 mm 0 W/m 1,0 C 2,9 C 6,4 km/h (2 Bft) 100,00 %
31.01.2017 17:40 2,7 C 2,7 C 2,9 C 87 % 0 cb 1018,2 hPa 0,0 l/m 1,6 km/h (1 Bft) O-NO 67 0 min 0,000 mm 0 W/m 0,8 C 2,7 C 6,4 km/h (2 Bft) 100,00 %
31.01.2017 17:50 2,4 C 2,4 C 2,7 C 88 % 0 cb 1018,3 hPa 0,0 l/m 1,6 km/h (1 Bft) O-NO 67 0 min 0,000 mm 0 W/m 0,6 C 2,4 C 4,8 km/h (1 Bft) 100,00 %
31.01.2017 18:00 2,2 C 2,2 C 2,4 C 88 % 0 cb 1018,4 hPa 0,0 l/m 1,6 km/h (1 Bft) O-NO 67 0 min 0,000 mm 0 W/m 0,4 C 2,2 C 3,2 km/h (1 Bft) 100,00 %
31.01.2017 18:10 2,0 C 2,0 C 2,2 C 89 % 0 cb 1018,5 hPa 0,0 l/m 0,0 km/h (0 Bft) O-NO 67 0 min 0,000 mm 0 W/m 0,4 C 2,0 C 3,2 km/h (1 Bft) 100,00 %
31.01.2017 18:20 1,8 C 1,8 C 1,9 C 90 % 0 cb 1018,6 hPa 0,0 l/m 0,0 km/h (0 Bft) N 0 0 min 0,000 mm 0 W/m 0,3 C 1,8 C 0,0 km/h (0 Bft) 100,00 %
31.01.2017 18:30 1,6 C 1,6 C 1,8 C 90 % 0 cb 1018,7 hPa 0,0 l/m 1,6 km/h (1 Bft) O-NO 67 0 min 0,000 mm 0 W/m 0,1 C 1,6 C 6,4 km/h (2 Bft) 100,00 %
31.01.2017 18:40 1,4 C 1,4 C 1,6 C 90 % 0 cb 1018,7 hPa 0,0 l/m 1,6 km/h (1 Bft) O-NO 67 0 min 0,000 mm 0 W/m -0,1 C 1,4 C 4,8 km/h (1 Bft) 100,00 %
31.01.2017 18:50 1,2 C 1,2 C 1,4 C 90 % 0 cb 1018,7 hPa 0,0 l/m 1,6 km/h (1 Bft) NO 45 0 min 0,000 mm 0 W/m -0,3 C 1,2 C 8,0 km/h (2 Bft) 99,56 %
31.01.2017 19:00 1,0 C 1,0 C 1,2 C 90 % 0 cb 1018,8 hPa 0,0 l/m 1,6 km/h (1 Bft) NO 45 0 min 0,000 mm 0 W/m -0,5 C 1,0 C 4,8 km/h (1 Bft) 96,49 %
31.01.2017 19:10 0,7 C 0,7 C 1,0 C 91 % 0 cb 1018,8 hPa 0,0 l/m 1,6 km/h (1 Bft) NO 45 0 min 0,000 mm 0 W/m -0,6 C 0,7 C 4,8 km/h (1 Bft) 100,00 %
31.01.2017 19:20 0,5 C 0,5 C 0,7 C 91 % 0 cb 1018,9 hPa 0,0 l/m 0,0 km/h (0 Bft) NO 45 0 min 0,000 mm 0 W/m -0,8 C 0,5 C 4,8 km/h (1 Bft) 100,00 %
31.01.2017 19:30 0,3 C 0,3 C 0,4 C 92 % 0 cb 1019,0 hPa 0,0 l/m 1,6 km/h (1 Bft) NO 45 0 min 0,000 mm 0 W/m -0,8 C 0,3 C 3,2 km/h (1 Bft) 100,00 %
31.01.2017 19:40 0,3 C 0,3 C 0,3 C 93 % 0 cb 1019,1 hPa 0,0 l/m 1,6 km/h (1 Bft) NO 45 0 min 0,000 mm 0 W/m -0,7 C 0,3 C 4,8 km/h (1 Bft) 98,68 %
31.01.2017 19:50 0,3 C 0,3 C 0,3 C 93 % 0 cb 1019,2 hPa 0,0 l/m 1,6 km/h (1 Bft) NO 45 0 min 0,000 mm 0 W/m -0,7 C 0,3 C 4,8 km/h (1 Bft) 100,00 %
31.01.2017 20:00 0,3 C 0,3 C 0,3 C 93 % 0 cb 1019,2 hPa 0,0 l/m 1,6 km/h (1 Bft) NO 45 0 min 0,000 mm 0 W/m -0,7 C 0,3 C 3,2 km/h (1 Bft) 100,00 %
31.01.2017 20:10 0,3 C 0,3 C 0,3 C 92 % 0 cb 1019,3 hPa 0,0 l/m 3,2 km/h (1 Bft) NO 45 0 min 0,000 mm 0 W/m -0,8 C 0,3 C 6,4 km/h (2 Bft) 100,00 %
31.01.2017 20:20 0,3 C 0,3 C 0,3 C 92 % 0 cb 1019,3 hPa 0,0 l/m 3,2 km/h (1 Bft) NO 45 0 min 0,000 mm 0 W/m -0,8 C 0,3 C 6,4 km/h (2 Bft) 100,00 %
31.01.2017 20:30 0,3 C 0,3 C 0,3 C 92 % 0 cb 1019,3 hPa 0,0 l/m 3,2 km/h (1 Bft) O-NO 67 0 min 0,000 mm 0 W/m -0,8 C 0,3 C 8,0 km/h (2 Bft) 100,00 %
31.01.2017 20:40 0,3 C 0,3 C 0,3 C 92 % 0 cb 1019,5 hPa 0,0 l/m 1,6 km/h (1 Bft) O-NO 67 0 min 0,000 mm 0 W/m -0,8 C 0,3 C 6,4 km/h (2 Bft) 100,00 %
31.01.2017 20:50 0,3 C 0,3 C 0,4 C 92 % 0 cb 1019,5 hPa 0,0 l/m 1,6 km/h (1 Bft) N-NO 22 0 min 0,000 mm 0 W/m -0,8 C 0,3 C 6,4 km/h (2 Bft) 100,00 %
31.01.2017 21:00 0,3 C 0,3 C 0,3 C 92 % 0 cb 1019,5 hPa 0,0 l/m 1,6 km/h (1 Bft) N-NO 22 0 min 0,000 mm 0 W/m -0,8 C 0,3 C 4,8 km/h (1 Bft) 99,56 %
31.01.2017 21:10 0,3 C 0,3 C 0,3 C 92 % 0 cb 1019,5 hPa 0,0 l/m 0,0 km/h (0 Bft) N-NO 22 0 min 0,000 mm 0 W/m -0,8 C 0,3 C 3,2 km/h (1 Bft) 99,56 %
31.01.2017 21:20 0,3 C 0,3 C 0,3 C 92 % 0 cb 1019,5 hPa 0,0 l/m 1,6 km/h (1 Bft) N-NO 22 0 min 0,000 mm 0 W/m -0,8 C 0,3 C 4,8 km/h (1 Bft) 100,00 %
31.01.2017 21:30 0,3 C 0,3 C 0,3 C 92 % 0 cb 1019,5 hPa 0,0 l/m 1,6 km/h (1 Bft) N-NO 22 0 min 0,000 mm 0 W/m -0,8 C 0,3 C 6,4 km/h (2 Bft) 100,00 %
31.01.2017 21:40 0,3 C 0,3 C 0,3 C 92 % 0 cb 1019,5 hPa 0,0 l/m 1,6 km/h (1 Bft) N-NO 22 0 min 0,000 mm 0 W/m -0,8 C 0,3 C 4,8 km/h (1 Bft) 100,00 %
31.01.2017 21:50 0,4 C 0,3 C 0,4 C 92 % 0 cb 1019,5 hPa 0,0 l/m 3,2 km/h (1 Bft) O-NO 67 0 min 0,000 mm 0 W/m -0,7 C 0,4 C 9,7 km/h (2 Bft) 100,00 %
31.01.2017 22:00 0,4 C 0,4 C 0,4 C 92 % 0 cb 1019,5 hPa 0,0 l/m 1,6 km/h (1 Bft) O-NO 67 0 min 0,000 mm 0 W/m -0,7 C 0,4 C 4,8 km/h (1 Bft) 100,00 %
31.01.2017 22:10 0,4 C 0,4 C 0,4 C 91 % 0 cb 1019,6 hPa 0,0 l/m 3,2 km/h (1 Bft) O-NO 67 0 min 0,000 mm 0 W/m -0,9 C 0,4 C 6,4 km/h (2 Bft) 100,00 %
31.01.2017 22:20 0,4 C 0,4 C 0,4 C 91 % 0 cb 1019,7 hPa 0,0 l/m 3,2 km/h (1 Bft) O-NO 67 0 min 0,000 mm 0 W/m -0,9 C 0,4 C 9,7 km/h (2 Bft) 100,00 %
31.01.2017 22:30 0,4 C 0,4 C 0,4 C 91 % 0 cb 1019,7 hPa 0,0 l/m 3,2 km/h (1 Bft) O-NO 67 0 min 0,000 mm 0 W/m -0,9 C 0,4 C 6,4 km/h (2 Bft) 100,00 %
31.01.2017 22:40 0,3 C 0,3 C 0,4 C 91 % 0 cb 1019,7 hPa 0,0 l/m 3,2 km/h (1 Bft) O-NO 67 0 min 0,000 mm 0 W/m -1,0 C 0,3 C 6,4 km/h (2 Bft) 100,00 %
31.01.2017 22:50 0,3 C 0,3 C 0,3 C 91 % 0 cb 1019,9 hPa 0,0 l/m 1,6 km/h (1 Bft) O-NO 67 0 min 0,000 mm 0 W/m -1,0 C 0,3 C 6,4 km/h (2 Bft) 100,00 %
31.01.2017 23:00 0,3 C 0,3 C 0,3 C 91 % 0 cb 1019,8 hPa 0,0 l/m 1,6 km/h (1 Bft) O-NO 67 0 min 0,000 mm 0 W/m -1,0 C 0,3 C 6,4 km/h (2 Bft) 100,00 %
31.01.2017 23:10 0,3 C 0,2 C 0,3 C 91 % 0 cb 1019,8 hPa 0,0 l/m 3,2 km/h (1 Bft) O-NO 67 0 min 0,000 mm 0 W/m -1,0 C 0,3 C 6,4 km/h (2 Bft) 99,56 %
31.01.2017 23:20 0,2 C 0,2 C 0,3 C 91 % 0 cb 1019,9 hPa 0,0 l/m 1,6 km/h (1 Bft) O-NO 67 0 min 0,000 mm 0 W/m -1,1 C 0,2 C 6,4 km/h (2 Bft) 100,00 %
31.01.2017 23:30 0,2 C 0,2 C 0,2 C 91 % 0 cb 1020,0 hPa 0,0 l/m 3,2 km/h (1 Bft) O-NO 67 0 min 0,000 mm 0 W/m -1,1 C 0,2 C 8,0 km/h (2 Bft) 100,00 %
31.01.2017 23:40 0,2 C 0,2 C 0,2 C 91 % 0 cb 1020,0 hPa 0,0 l/m 1,6 km/h (1 Bft) O-NO 67 0 min 0,000 mm 0 W/m -1,1 C 0,2 C 6,4 km/h (2 Bft) 100,00 %
31.01.2017 23:50 0,2 C 0,2 C 0,2 C 92 % 0 cb 1019,9 hPa 0,0 l/m 1,6 km/h (1 Bft) O-NO 67 0 min 0,000 mm 0 W/m -0,9 C 0,2 C 4,8 km/h (1 Bft) 100,00 %
_ Min-Zeit 23:10 23:10 23:30 15:10 00:00 00:40 - 00:30 - - - - - 23:20 23:20 04:40 07:10
Minimum _ 0,2 C 0,2 C 0,2 C 81 % 0 cb 1014,5 hPa - 0,0 km/h (0 Bft) - - - - - -1,1 C 0,2 C 0,0 km/h (0 Bft) 93,86 %
_ Max-Zeit 03:10 03:20 03:10 00:00 00:00 23:30 00:10 06:00 - - 09:50 14:00 13:00 02:20 02:20 06:00 00:00
Maximum _ 5,6 C 5,5 C 5,6 C 98 % 0 cb 1020,0 hPa 0,2 l/m 6,4 km/h
N-NW (2 Bft)
- - 10 min 0,127 mm 596 W/m 5,2 C 5,5 C 12,9 km/h
N-NW (3 Bft)
100,00 %
Durchschnitt _ 3,0 C 3,0 C 3,1 C 92 % 0 cb 1016,9 hPa #0,6 l/m 2,1 km/h (1 Bft) O-NO - #6:10 h #0,609 mm 240 W/m 1,9 C 2,9 C 6,5 km/h (2 Bft) 99,87 %
Wetterstation Gdesweiler